dimanche 10 mars 2019

Vous pouvez trouver Le classement original sur : http://ultratiming.be
 
HUY FOR TRAIL - HUY
DISTANCE 20.89 km
dimanche 10 mars 2019
 
Place dos NOM Equipe Catégorie Pl/cat temps temps/km Vitesse
01:00:00                
1 599 LENAERTS JEAN-CHRISTOPHE T4FUN V1H 1 1:37:09 04:39 12.90
2 785 HONNAY XAVIER - SEH 1 1:39:07 04:45 12.64
3 651 MOTTOUL VINCENT VINOTHÈQUE WANZE V1H 2 1:41:27 04:51 12.35
4 610 LONCAR FREDDY FRELON'S V1H 3 1:42:13 04:54 12.26
5 524 FRISON DAVID OMÉGA NUTRITION MJ S V1H 4 1:47:22 05:08 11.67
6 521 FRANCOTTE SEBASTIEN - V1H 5 1:53:53 05:27 11.00
7 443 CHAMPAGNE REGIS LMDH V1H 6 1:54:06 05:28 10.98
8 462 DANZE THOMAS LEKENYANBLANC SEH 2 1:54:18 05:28 10.96
9 617 LUCAS CHRISTOPHE - V1H 7 1:54:23 05:29 10.96
10 677 ROBERT YVES HUY ATHLETIC CLUB V1H 8 1:54:29 05:29 10.95
11 484 DELIRE ALAIN TRAIL FOR FUN HUY V2H 1 1:54:58 05:30 10.90
12 778 NEUTELEERS ERIC - V2H 2 1:55:21 05:31 10.86
13 643 MICHELIS FRANÇOIS RUNNING TEAM CONDROZ SEH 3 1:58:40 05:41 10.56
14 564 HEINE LAURENT HUY ATHLETIC CLUB V1H 9 1:58:49 05:41 10.55
15 512 FABRE MICHAËL TRAIL FOR FUN HUY V1H 10 1:58:49 05:41 10.55
16 641 MEUNIER VINCENT - SEH 4 1:59:02 05:42 10.53
17 576 JEUNEHOMME DENIS - V1H 11 1:59:24 05:43 10.50
18 421 BONOMO SEBASTIEN - SEH 5 2:00:21 05:46 10.41
19 403 BAECKELANDT GEOFFREY - SEH 6 2:01:12 05:48 10.34
20 733 VANDERSMISSEN COLIN PAT'S FOLLES ESPH 1 2:01:51 05:50 10.29
21 546 GOCHEL FREDERIC - SEH 7 2:02:13 05:51 10.25
22 505 DUBOIS CEDRIC - SEH 8 2:02:14 05:51 10.25
23 619 MACORS KEVIN - SEH 9 2:02:19 05:51 10.25
24 669 PIRON FRÉDÉRIC TRAIL 4 FUN V2H 3 2:02:29 05:52 10.23
25 467 DE LAMOTTE OLIVIER - V1H 12 2:03:17 05:54 10.17
26 541 GILLET EMMANUEL VINALMONT RUNNING FR V1H 13 2:03:19 05:54 10.16
27 680 ROCOUR BERTRAND - SEH 10 2:03:35 05:55 10.14
28 667 PIRAPREZ CAMIE - V1H 14 2:03:57 05:56 10.11
29 692 SERVAIS JOHAN LES HUYNNERS V1H 15 2:04:36 05:58 10.06
30 652 MOUSSEBOIS ERIC RT SPRIMONT SEH 11 2:05:20 06:00 10.00
31 622 MAQUET JORDAN - SEH 12 2:05:29 06:00 9.99
32 616 LUC DOMINIQUE - V2H 4 2:05:29 06:00 9.99
33 697 SIRAULT RUDY HUY ATHLETIC CLUB V1H 16 2:05:31 06:01 9.98
34 685 ROQUET RAPHAEL - V1H 17 2:05:35 06:01 9.98
35 476 DEHIN LUDOVIC OCAN V1H 18 2:05:39 06:01 9.97
36 717 TILL HEINEN ALEMANNIA AACHEN ESPH 2 2:06:17 06:03 9.92
37 528 GARCIA MAXIME - SEH 13 2:06:46 06:04 9.89
38 758 WILMET BENOIT - V2H 5 2:06:51 06:04 9.88
39 635 FRANCISE PATRICK - V1H 19 2:06:55 06:05 9.87
40 620 MAERTEN THOMAS BLACKBUCKS ESPH 3 2:06:56 06:05 9.87
41 518 FÖLDESI DAVID WAC V1H 20 2:06:58 06:05 9.87
42 516 FERON OLIVIER - V1H 21 2:06:59 06:05 9.87
43 776 HAOUCHINE HASSN - V2H 6 2:07:00 06:05 9.87
44 544 GIOZZET FREDERIC BIBINNERUNNERS SEH 14 2:07:06 06:05 9.86
45 555 GUILLAUME JEAN-MICHEL WAC V1H 22 2:07:09 06:05 9.86
46 672 PRINSENS GEOFFREY - SEH 15 2:07:24 06:06 9.84
47 470 DECONNINCK ADRIEN RUNNING TEAM CONDROZ SEH 16 2:07:39 06:07 9.82
48 618 LUSSIS BENOIT - V1H 23 2:07:42 06:07 9.81
49 696 SIMONSE EVA RAPIDE ET AGILE SEF 1 2:07:43 06:07 9.81
50 522 FRERE SEBASTIEN SER ATH SEH 17 2:07:43 06:07 9.81
51 726 VAN DER KAA VINCENT - V1H 24 2:07:44 06:07 9.81
52 578 KALKMANN FREDERIC - V1H 25 2:07:48 06:07 9.81
53 414 BERNAR FRANCOIS - SEH 18 2:07:49 06:07 9.80
54 701 STALPORT CAROLE LES FRELONS SEF 2 2:07:55 06:07 9.80
55 648 MOIRANO RONALD BOUBIET TEAM SEH 19 2:07:59 06:08 9.79
56 415 BERNARD PAUL HERON SEH 20 2:07:59 06:08 9.79
57 642 MICHEL OLIVIER LES FRELONS V1H 26 2:08:05 06:08 9.78
58 724 VAN BROEKHOVEN ERWIN RAPIDE ET AGILE SEH 21 2:08:50 06:10 9.73
59 494 DETRIXHE CHRISTOPHE WAC V1H 27 2:08:54 06:10 9.72
60 772 DEJARDIN OLIVIER - V2H 7 2:09:46 06:13 9.66
61 540 GIACCHETTA STÉPHANE - V1H 28 2:10:23 06:15 9.61
62 695 SIMONET CHRISTOPHE RUNNING TEAM CONDROZ SEH 22 2:10:27 06:15 9.61
63 563 HAUMONT RAPHAEL OCAN V1H 29 2:10:49 06:16 9.58
64 423 BOSCO LIONEL - SEH 23 2:10:52 06:16 9.58
65 525 GALET DAMIEN OCR BELGIUM WALLONIA SEH 24 2:10:54 06:16 9.57
66 627 MARECHAL ARNAUD - V1H 30 2:10:57 06:16 9.57
67 570 HOET LAURIANNE - SEF 3 2:11:00 06:16 9.57
68 666 PIERRE LIONEL LDLV V2H 8 2:11:02 06:16 9.56
69 742 VENEZIANO CARINE ESN V1F 1 2:11:13 06:17 9.55
70 410 BECK GEOFFREY LES FOULÉS DU PLAISI V1H 31 2:11:44 06:18 9.51
71 777 777 N.N. - -1 1 2:11:49 06:19 9.51
72 688 RUYMAEKERS KENNETH RCBT SEH 25 2:12:14 06:20 9.48
73 712 THIRY SAMUEL - V1H 32 2:12:19 06:20 9.47
74 407 BAUMANS BENOIT RUNASTOCK V1H 33 2:13:17 06:23 9.40
75 766 BALTHASART OLIVIER - SEH 26 2:13:27 06:23 9.39
76 452 COLLARD JULIEN - SEH 27 2:13:49 06:24 9.37
77 624 MARCHAL LUDOVIC JIA V1H 34 2:14:23 06:26 9.33
78 556 GUILLET OLIVIER - SEH 28 2:14:27 06:26 9.32
79 698 SMEERS YVES JOG'IN ATTITUDE V1H 35 2:14:42 06:27 9.30
80 543 GILTAIX PHILIPPE - V1H 36 2:14:42 06:27 9.30
81 465 DE BEER OLIVIER - V1H 37 2:14:47 06:27 9.30
82 490 DESSY SÉBASTIEN WACO V1H 38 2:14:51 06:27 9.29
83 653 MOZIN MICHAEL - SEH 29 2:14:51 06:27 9.29
84 710 THEYS SOPHIE RT BRAIVES SEF 4 2:14:59 06:28 9.28
85 486 DELVAUX JEAN-FRANÇOIS SOYOUZ SEH 30 2:15:01 06:28 9.28
86 448 CLOSSET OLIVIER - V1H 39 2:15:15 06:29 9.27
87 719 TORNABENE JONATHAN - SEH 31 2:15:35 06:29 9.24
88 600 LENOIR ROBIN TORTUES MESLINOISES SEH 32 2:16:15 06:31 9.20
89 499 DEWIT RAYMOND - V1H 40 2:16:16 06:31 9.20
90 746 VEYS GRÉGORY - SEH 33 2:16:17 06:31 9.20
91 686 RORIVE LAURENT - V1H 41 2:16:19 06:32 9.19
92 681 ROELANDTS VINCENT - V2H 9 2:16:20 06:32 9.19
93 632 MARX NICOLAS ASPITRAIL 95 V1H 42 2:16:54 06:33 9.15
94 586 LAHAYE MARC - V1H 43 2:17:13 06:34 9.13
95 676 RENAULT GRÉGORY BICHETTE V1H 44 2:17:16 06:34 9.13
96 568 HENRY GAETAN VINO TEAM V1H 45 2:17:17 06:34 9.13
97 501 DOUFFET FRANÇOIS - SEH 34 2:17:17 06:34 9.13
98 560 HANQUET YVES RUNASTOCK V2H 10 2:17:22 06:35 9.12
99 531 GASPARD JIMMY - SEH 35 2:18:10 06:37 9.07
100 491 DESSY VALÉRY - V1H 46 2:18:15 06:37 9.06
101 657 NICOLAS GILLES THARE TEAM TRAIL V1H 47 2:18:38 06:38 9.04
102 507 DUCARME YANNICK UTMB-OCC V1H 48 2:18:50 06:39 9.03
103 463 DAOUT BERTRAND P8 V1H 49 2:19:13 06:40 9.00
104 480 DEKROCK PHILIPPE - V1H 50 2:19:48 06:42 8.96
105 700 SONTAG THIERRY - V1H 51 2:19:49 06:42 8.96
106 439 CAMINELLE MATHIEU MCP SEH 36 2:19:51 06:42 8.96
107 545 GOBIN PIERRE RCAE SEH 37 2:19:51 06:42 8.96
108 659 ORBAN COLINNE SER ATHL SEF 5 2:19:53 06:42 8.96
109 419 BIGARÉ GREGORY SPORT ET FUN HÉLÉCIN V1H 52 2:20:05 06:42 8.95
110 579 KEMPENEERS LÉOPOLD AU BUCK! V1H 53 2:20:11 06:43 8.94
111 457 CORNÉLIS PATRICE CAP NRB V2H 11 2:20:40 06:44 8.91
112 752 WAUTIER CHLOÉ - SEF 6 2:20:56 06:45 8.89
113 519 FONTAINE CINDY - SEF 7 2:20:59 06:45 8.89
114 451 COLLARD PASCAL - V2H 12 2:21:01 06:45 8.89
115 526 GANASSIN LUCIA FRELON'S V2F 1 2:21:18 06:46 8.87
116 780 LEROY REGIS - SEH 38 2:21:22 06:46 8.87
117 615 LOUYET LAURENT TEAM TRAIL D'ADZEUX V1H 54 2:21:23 06:46 8.86
118 593 LECOMTE BENOÎT RT BRAIVES V1H 55 2:21:24 06:46 8.86
119 402 BADO MATHIEU RC NAMUR SEH 39 2:22:08 06:48 8.82
120 547 GODFRAIND CHRISTIAN - V2H 13 2:22:56 06:51 8.77
121 575 ITTOO ASHWIN - V1H 56 2:23:02 06:51 8.76
122 589 LAMY DAVID - V1H 57 2:23:03 06:51 8.76
123 420 BINARD MARC ULIÈGE-RCAE V3H 1 2:23:29 06:52 8.73
124 580 KERSTENS GUY - V1H 58 2:23:35 06:52 8.73
125 773 EHX OLIVIER - V1H 59 2:23:41 06:53 8.72
126 612 LOUSBERG CARINE FOULÉES DU PLAISIR V2F 2 2:24:14 06:54 8.69
127 734 VANDEVOORDE VALENTIN - SEH 40 2:24:27 06:55 8.68
128 670 POTIER CEDRIC - V1H 60 2:24:41 06:56 8.66
129 430 BRÈNE YVES LES EOLES V1H 61 2:25:06 06:57 8.64
130 527 GARCIA LUDOVIC PUISSANCE HUY'T SEH 41 2:25:07 06:57 8.64
131 471 DEDRY CHRISTOPHE - V1H 62 2:25:10 06:57 8.63
132 673 RAHMOUN NOUR - SEH 42 2:25:25 06:58 8.62
133 760 ZARADZKI DAVID - V1H 63 2:25:33 06:58 8.61
134 488 DENOOZ AXEL RUNNING CLUB SOUMAGN V1H 64 2:25:37 06:58 8.61
135 754 WEYRICH PIERRE TRAIL FOR FUN HUY V1H 65 2:26:22 07:00 8.56
136 554 GROSFILS MICHEL RUNNING TEAM CONDROZ V1H 66 2:26:35 07:01 8.55
137 534 GAUDIN SYLVAIN - SEH 43 2:26:42 07:01 8.54
138 699 SMITS DAVID ILR V1H 67 2:26:49 07:02 8.54
139 690 SCHIFFLERS STÉPHANE RUNNING TEAM CONDROZ V1H 68 2:26:54 07:02 8.53
140 559 GYEN MICHAËL LES ÉOLES VILLERS-LE V1H 69 2:27:14 07:03 8.51
141 487 DELVENNE MARC - V2H 14 2:27:47 07:05 8.48
142 644 MIGNOT BENOIT - V1H 70 2:28:04 07:05 8.46
143 595 LEGROS FREDERIC LES ÉOLES V1H 71 2:28:29 07:07 8.44
144 640 MESTREZ CHARLES LES PAT'FOLLES V2H 15 2:28:37 07:07 8.43
145 691 SCHOOFS RICHARD - V2H 16 2:29:10 07:08 8.40
146 770 CHAMPON JEFF - V1H 72 2:29:27 07:09 8.39
147 572 HOUBION MICHAEL - SEH 44 2:29:27 07:09 8.39
148 705 STRYPSTEIN NATHAN J - SEH 45 2:29:43 07:10 8.37
149 774 FANIELLE OLIVIER - SEH 46 2:29:47 07:10 8.37
150 535 GAUTHY MATTHIEU - SEH 47 2:30:02 07:11 8.35
151 603 LEROY SERGE MODAVE V1H 73 2:30:13 07:12 8.34
152 649 MONTULET DAVID - SEH 48 2:31:08 07:14 8.29
153 455 COP MATHIEU - SEH 49 2:31:14 07:14 8.29
154 747 VOLINO FABRIZIO - V1H 74 2:31:28 07:15 8.27
155 477 DEJARDIN CHRISTELLE LES FRELONS V1F 2 2:31:33 07:15 8.27
156 513 FAGNOUL PHILIPPE BICHETTE V1H 75 2:31:46 07:16 8.26
157 727 VAN HESPEN BENOIT - V2H 17 2:31:55 07:16 8.25
158 658 OGER PIERRE LES ÉOLES V2H 18 2:32:01 07:17 8.24
159 637 MATAGNE ANNE - V1F 3 2:32:20 07:18 8.23
160 707 TAVOLIERI AXEL - CAH 1 2:32:23 07:18 8.22
161 582 KINET OLIVIER RUNNING TEAM CONDROZ V1H 76 2:32:33 07:18 8.22
162 502 DOUFFET RENAUD UTDA SEH 50 2:32:44 07:19 8.21
163 411 BEDEMANN JESSIKA MARATHON-CLUB ESCHWE SEF 8 2:32:48 07:19 8.20
164 511 EISENBEIS DENNIS MARATHON-CLUB ESCHWE SEH 51 2:32:48 07:19 8.20
165 408 BAVUZ ROMAIN TEAM TRAIL AIX LES B SEH 52 2:33:04 07:20 8.19
166 583 KIRTEN PIERRE NATU'RUN SEH 53 2:33:10 07:20 8.18
167 533 GATIN CHRISTOPHE - V1H 77 2:33:16 07:20 8.18
168 704 STRUVAY LUDOVIC - SEH 54 2:35:15 07:26 8.07
169 606 LHOEST NICOLAS MAGPIE HUY SEH 55 2:35:21 07:26 8.07
170 598 LEMAITRE PIERRE - V1H 78 2:35:22 07:26 8.07
171 713 THOMAS OLIVIER - V1H 79 2:35:26 07:26 8.06
172 662 PARISSE CHRISTIAN RUN À STOCK V1H 80 2:35:34 07:27 8.06
173 679 ROBERT DOROTHY - V1F 4 2:37:00 07:31 7.98
174 786 CICCANCCA TONY - V1H 81 2:37:01 07:31 7.98
175 482 DELAPIERRE FRÉDÉRIC - V1H 82 2:37:06 07:31 7.98
176 729 VANBLERICQ DAVID - V1H 83 2:37:07 07:31 7.98
177 509 DURELLO VALÉRIE - SEF 9 2:37:13 07:32 7.97
178 602 LEROY ERIC - V2H 19 2:37:33 07:33 7.95
179 461 DALL'OCA SERGIO - V2H 20 2:37:37 07:33 7.95
180 588 LALOUX HELENE LES FRELONS SEF 10 2:37:41 07:33 7.95
181 590 LAURENT DAVID LES FRELONS SEH 56 2:37:42 07:33 7.95
182 447 CLOSE DODO RUN ESSENCE V3H 2 2:37:42 07:33 7.95
183 787 DENIS ARNAUD - SEH 57 2:38:07 07:34 7.93
184 520 FOURGEAUX SOPHIE MJ SPORT V1F 5 2:38:08 07:34 7.93
185 706 SUAREZ CATHY - V1F 6 2:38:08 07:34 7.93
186 737 VANESSE FRÉDÉRIC - SEH 58 2:38:35 07:36 7.90
187 405 BARBÉ DELPHINE RUNNING TEAM CONDROZ SEF 11 2:38:36 07:36 7.90
188 436 BRUNINX RUBEN - SEH 59 2:38:36 07:36 7.90
189 718 TIXHON JÉRÉMIE LES JOB'S SEH 60 2:38:44 07:36 7.90
190 536 GEORIS PASCAL LES JOB'S V1H 84 2:38:44 07:36 7.90
191 508 DUCOBU PHILIPPE - V3H 3 2:39:05 07:37 7.88
192 479 DEKOSTER DAMIEN - V1H 85 2:39:14 07:37 7.87
193 722 TUTS STÉPHANIE - SEF 12 2:39:15 07:37 7.87
194 429 BRAFFORT FABRICE - V1H 86 2:39:18 07:38 7.87
195 687 ROUSSEAU DAVID AXA TEAM V1H 87 2:39:20 07:38 7.87
196 689 SCHIFANO ROGER - V1H 88 2:39:21 07:38 7.86
197 744 VERPOORTEN LEÏLA - V1F 7 2:39:22 07:38 7.86
198 782 IVERGNEAU GAETANE - V2F 3 2:39:22 07:38 7.86
199 426 BOVY PHILIPPE - V2H 21 2:39:46 07:39 7.84
200 469 DEBOUNY FABIAN - SEH 61 2:39:54 07:39 7.84
201 668 PIRNAY JEAN-FRANÇOIS - V2H 22 2:40:08 07:40 7.83
202 537 GEROME GEOFFREY - V1H 89 2:40:52 07:42 7.79
203 530 GARROY CHRISTOPHE - V1H 90 2:41:20 07:43 7.77
204 453 PERL FRÉDÉRIC - V1H 91 2:41:21 07:43 7.77
205 663 PARKER PATRICK - ESPH 4 2:42:49 07:48 7.70
206 625 MARCHAL STÉPHAN - V1H 92 2:42:55 07:48 7.69
207 517 FETT THOMAS LES FRELONS V1H 93 2:42:59 07:48 7.69
208 771 COP SÉBASTIEN - SEH 62 2:43:28 07:50 7.67
209 428 BRACKE CHARLES WPRC V1H 94 2:43:52 07:51 7.65
210 498 DEVRESSE SIMON - SEH 63 2:43:54 07:51 7.65
211 492 DETAILLE FRANCE - SEF 13 2:43:54 07:51 7.65
212 550 GONTHIER LOUIS - JUH 1 2:43:58 07:51 7.64
213 740 VANHALLE STÉPHANE - SEH 64 2:44:08 07:51 7.64
214 604 LESCEUX AUDREY LES FRELONS SEF 14 2:44:27 07:52 7.62
215 585 LAFOSSE JONATHAN - SEH 65 2:45:05 07:54 7.59
216 735 VANDEVORST CLEMENT - SEH 66 2:45:47 07:56 7.56
217 751 WAUTERS VINCENT FCHA -1 2 2:45:52 07:56 7.56
218 573 HUSSON MÉLANIE HUY ATHLETIC CLUB SEF 15 2:46:17 07:58 7.54
219 756 WILLIAUME ERIC - V1H 95 2:46:29 07:58 7.53
220 765 ZWAENEPOEL MICHEL WAC V2H 23 2:48:07 08:03 7.45
221 750 WARPS JULES - V2H 24 2:48:12 08:03 7.45
222 645 MINSTER VALERIE FCHA V1F 8 2:48:37 08:04 7.43
223 741 VAUTERS SEBASTIEN - V1H 96 2:48:41 08:05 7.43
224 720 TRIBOLET CELINE - SEF 16 2:49:02 08:06 7.41
225 592 LECLOUX GREGORY - SEH 67 2:49:10 08:06 7.41
226 745 VERPOORTEN ROGER INFRATRAIL LISOGNE V3H 4 2:49:15 08:06 7.40
227 731 VANDENSAVEL MANON WAC SEF 17 2:49:29 08:07 7.39
228 557 GUSTIN GRÉGOIRE - SEH 68 2:50:43 08:10 7.34
229 558 GUSTIN MAXIME ILR SEH 69 2:50:44 08:10 7.34
230 607 LIBION MARC - V2H 25 2:51:14 08:12 7.32
231 569 HERION CÉCILE JE COURS À INCOURT V1F 9 2:51:21 08:12 7.31
232 562 HAULOTTE OLIVIER JE COURS À INCOURT V1H 97 2:51:22 08:12 7.31
233 581 KINET GARY LES JOB'S SEH 70 2:51:33 08:13 7.31
234 763 ZUCCARINI ENZO - SEH 71 2:51:34 08:13 7.30
235 449 COCQUYT IDES KREKENLOPERS V1H 98 2:51:48 08:14 7.29
236 614 LOUVRIER AMAURY - SEH 72 2:52:55 08:17 7.25
237 503 DOYEN MARIE JEANNE FCHA V3F 1 2:53:11 08:17 7.24
238 660 PAELINCK CHRISTOPHE ORPOIS V1H 99 2:53:35 08:19 7.22
239 413 BELLENS MARIANNE LES COUREURS ORPOIS V1F 10 2:53:35 08:19 7.22
240 779 TANASE ARIELLE I LOVE RUNNING LIÈGE V2F 4 2:53:43 08:19 7.21
241 474 DEGLER STEPHANIE - SEF 18 2:53:44 08:19 7.21
242 473 DEGLER GERALDINE - SEF 19 2:53:45 08:19 7.21
243 412 BELAIRE MICHAEL AMPSAIR SEH 73 2:53:45 08:19 7.21
244 628 MARECHAL PIERRE - V1H 100 2:53:45 08:19 7.21
245 445 CHARLOTIAUX ANNE AMPSAIR V1F 11 2:53:45 08:19 7.21
246 571 HOORELBEKE ARABELLE FCHA V2F 5 2:55:27 08:24 7.14
247 489 DEPREZ HERVÉ - V2H 26 2:55:31 08:24 7.14
248 708 TAVOLIERI CÉDRIC - V1H 101 2:56:49 08:28 7.09
249 597 LEMAHIEU MARIE - SEF 20 2:56:57 08:28 7.08
250 768 BORTOLOTTI EMMANUEL TRAIL FOR FUN HUY V1H 102 2:56:57 08:28 7.08
251 665 PHILLIPS KEVIN - SEH 74 2:57:47 08:31 7.05
252 655 NEVEN CHRISTOPHE - SEH 75 2:57:52 08:31 7.05
253 454 CONTENT TOM - SEH 76 2:58:42 08:33 7.01
254 523 FREYMAN MAXIM - SEH 77 2:58:42 08:33 7.01
255 714 THYS CAROLINE RUNNING TEAM CONDROZ V1F 12 2:59:20 08:35 6.99
256 716 THYS RACHEL NATU’RUN V1F 13 2:59:21 08:35 6.99
257 458 CORNET CHRISTOPHE RUNNING TEAM CONDROZ V1H 103 2:59:22 08:35 6.99
258 671 PREGALDIEN AUDREY - V1F 14 2:59:51 08:37 6.97
259 664 PEREE GERALDINE - V1F 15 2:59:51 08:37 6.97
260 481 DEL GIUDICE ANGELA - SEF 21 3:00:17 08:38 6.95
261 475 DEGOTTE BENOIT - V2H 27 3:00:18 08:38 6.95
262 431 BREULHEID AMÉLIE - SEF 22 3:01:13 08:41 6.92
263 683 ROMBOUTS DIRK - V2H 28 3:01:43 08:42 6.90
264 761 ZEGUERS ERIC - V2H 29 3:02:14 08:43 6.88
265 464 DAROT STEPHANE LES FRELONS V1H 104 3:03:52 08:48 6.82
266 538 GHEURY JEAN-MARIE SER ATHL V2H 30 3:04:37 08:50 6.79
267 769 CATOUL GERALD RUNING TEAM CONDROZ V1H 105 3:05:14 08:52 6.77
268 682 ROMAIN VALÉRIE - V1F 16 3:06:07 08:55 6.73
269 629 MARÉCHAL FRANÇOIS - SEH 78 3:07:31 08:59 6.68
270 542 GILLET GEOFFREY - SEH 79 3:07:31 08:59 6.68
271 748 VOS CLAIRE RUNNING TEAM CONDROZ V2F 6 3:09:01 09:03 6.63
272 703 STASSE JEAN-PIERRE RUNNING TEAM CONDROZ V2H 31 3:09:02 09:03 6.63
273 755 WILLEQUET ANNE - V1F 17 3:09:02 09:03 6.63
274 515 FEKETE CAROLINE - V2F 7 3:09:09 09:03 6.63
275 483 DELCOMMINETTE VALÉRIE - SEF 23 3:09:31 09:04 6.61
276 730 VANCOLEN YANNICK JE COURS POUR MA FOR V2H 32 3:10:03 09:06 6.59
277 440 CAMUS OLIVIER FUN WITH FRIENDS SEH 80 3:15:34 09:22 6.41
278 711 THIRY ETIENNE - V3H 5 3:16:46 09:25 6.37
279 529 GARCIA GUERRERO MONICA - SEF 24 3:17:25 09:27 6.35
280 472 DEFFET BENOIT - V1H 106 3:17:25 09:27 6.35
281 757 WILMART GEOFFREY BMB V1H 107 3:17:25 09:27 6.35
282 623 MAQUET SYLVIE LES EOLES V2F 8 3:39:33 10:31 5.71
283 506 DUCAMP JEAN POL LES EOLES V3H 6 3:49:01 10:58 5.47